createdAt,value
2023-03-25T00:00:21.787Z,26.60
2023-03-25T00:02:53.642Z,26.60
2023-03-25T00:05:24.220Z,26.60
2023-03-25T00:07:54.937Z,26.70
2023-03-25T00:10:24.165Z,26.70
2023-03-25T00:12:53.895Z,26.70
2023-03-25T00:15:23.360Z,26.80
2023-03-25T00:17:52.615Z,26.80
2023-03-25T00:20:24.697Z,26.90
2023-03-25T00:22:53.913Z,27.00
2023-03-25T00:25:23.158Z,27.00
2023-03-25T00:27:52.437Z,27.10
2023-03-25T00:30:22.310Z,27.20
2023-03-25T00:32:53.633Z,27.30
2023-03-25T00:35:24.889Z,27.30
2023-03-25T00:37:58.480Z,27.40
2023-03-25T00:40:35.758Z,27.50
2023-03-25T00:43:07.596Z,27.60
2023-03-25T00:48:06.899Z,27.70
2023-03-25T00:50:36.348Z,27.80
2023-03-25T00:53:05.653Z,27.90
2023-03-25T00:55:34.877Z,28.00
2023-03-25T00:58:06.360Z,28.10
2023-03-25T01:00:35.535Z,28.20
2023-03-25T01:03:05.112Z,28.30
2023-03-25T01:05:37.043Z,28.40
2023-03-25T01:08:06.447Z,28.50
2023-03-25T01:10:39.178Z,28.50
2023-03-25T01:13:11.464Z,28.60
2023-03-25T01:15:48.963Z,28.70
2023-03-25T01:18:23.480Z,28.70
2023-03-25T01:20:56.564Z,28.80
2023-03-25T01:23:25.774Z,28.90
2023-03-25T01:25:54.921Z,29.00
2023-03-25T01:28:24.228Z,29.00
2023-03-25T01:30:53.500Z,29.10
2023-03-25T01:33:22.771Z,29.10
2023-03-25T01:35:52.375Z,29.20
2023-03-25T01:38:22.149Z,29.30
2023-03-25T01:40:54.431Z,29.40
2023-03-25T01:43:24.545Z,29.50
2023-03-25T01:45:53.924Z,29.50
2023-03-25T01:48:41.591Z,29.60
2023-03-25T01:51:24.062Z,29.70
2023-03-25T01:53:54.553Z,29.70
2023-03-25T01:56:34.369Z,29.80
2023-03-25T01:59:08.187Z,29.90
2023-03-25T02:01:37.813Z,29.90
2023-03-25T02:04:13.726Z,30.00
2023-03-25T02:06:52.067Z,30.10
2023-03-25T02:09:27.052Z,30.20
2023-03-25T02:11:56.231Z,30.30
2023-03-25T02:14:32.686Z,30.40
2023-03-25T02:17:36.315Z,30.40
2023-03-25T02:20:50.887Z,30.50
2023-03-25T02:23:50.710Z,30.60
2023-03-25T02:26:46.886Z,30.70
2023-03-25T02:29:41.229Z,30.90
2023-03-25T02:32:58.244Z,31.10
2023-03-25T02:36:12.484Z,31.20
2023-03-25T02:39:06.804Z,31.40
2023-03-25T02:42:19.092Z,31.60
2023-03-25T02:45:00.064Z,31.80
2023-03-25T02:47:46.041Z,31.90
2023-03-25T02:50:42.798Z,32.10
2023-03-25T02:53:22.569Z,32.20
2023-03-25T02:55:56.297Z,32.30
2023-03-25T02:58:28.748Z,32.40
2023-03-25T03:01:01.692Z,32.50
2023-03-25T03:03:31.061Z,32.50
2023-03-25T03:06:05.414Z,32.60
2023-03-25T03:08:53.017Z,32.60
2023-03-25T03:11:59.834Z,32.70
2023-03-25T03:15:06.751Z,32.80
2023-03-25T03:18:09.872Z,32.90
2023-03-25T03:21:10.262Z,33.00
2023-03-25T03:24:08.661Z,33.10
2023-03-25T03:26:54.260Z,33.20
2023-03-25T03:29:32.844Z,33.20
2023-03-25T03:32:21.955Z,33.30
2023-03-25T03:35:00.823Z,33.30
2023-03-25T03:37:43.903Z,33.40
2023-03-25T03:40:19.933Z,33.40
2023-03-25T03:42:58.084Z,33.50
2023-03-25T03:45:47.609Z,33.60
2023-03-25T03:48:32.850Z,33.70
2023-03-25T03:51:11.066Z,33.80
2023-03-25T03:53:59.598Z,33.90
2023-03-25T03:57:02.815Z,33.90
2023-03-25T03:59:58.650Z,34.00
2023-03-25T04:02:53.768Z,34.10
2023-03-25T04:05:31.640Z,34.10
2023-03-25T04:08:15.096Z,34.20
2023-03-25T04:11:17.421Z,34.30
2023-03-25T04:13:50.931Z,34.40
2023-03-25T04:16:20.183Z,34.50
2023-03-25T04:18:49.401Z,34.60
2023-03-25T04:21:18.626Z,34.70
2023-03-25T04:23:47.837Z,34.80
2023-03-25T04:26:17.071Z,34.80
2023-03-25T04:28:46.208Z,34.90
2023-03-25T04:31:19.152Z,35.00
2023-03-25T04:33:49.348Z,35.00
2023-03-25T04:36:18.739Z,35.10
2023-03-25T04:38:47.909Z,35.10
2023-03-25T04:41:18.475Z,35.20
2023-03-25T04:43:47.768Z,35.30
2023-03-25T04:46:19.711Z,35.40
2023-03-25T04:48:49.441Z,35.50
2023-03-25T04:51:19.278Z,35.60
2023-03-25T04:53:48.494Z,35.70
2023-03-25T04:56:20.279Z,35.70
2023-03-25T04:58:49.493Z,35.80
2023-03-25T05:01:33.353Z,35.90
2023-03-25T05:04:06.711Z,36.00
2023-03-25T05:06:42.689Z,36.10
2023-03-25T05:09:20.080Z,36.20
2023-03-25T05:11:50.240Z,36.30
2023-03-25T05:14:22.789Z,36.40
2023-03-25T05:16:52.140Z,36.50
2023-03-25T05:19:21.556Z,36.60
2023-03-25T05:21:50.775Z,36.70
2023-03-25T05:24:20.325Z,36.80
2023-03-25T05:26:49.520Z,36.90
2023-03-25T05:29:18.853Z,37.10
2023-03-25T05:31:49.532Z,37.20
2023-03-25T05:34:18.921Z,37.20
2023-03-25T05:36:48.665Z,37.30
2023-03-25T05:39:18.623Z,37.40
2023-03-25T05:41:47.770Z,37.40
2023-03-25T05:44:20.170Z,37.50
2023-03-25T05:46:49.513Z,37.60
2023-03-25T05:49:19.127Z,37.70
2023-03-25T05:51:50.523Z,37.80
2023-03-25T05:54:19.767Z,37.90
2023-03-25T05:56:49.217Z,37.90
2023-03-25T05:59:19.057Z,38.00
2023-03-25T06:01:48.355Z,38.00
2023-03-25T06:04:17.645Z,38.20
2023-03-25T06:06:47.758Z,38.30
2023-03-25T06:09:18.816Z,38.30
2023-03-25T06:11:54.346Z,38.40
2023-03-25T06:14:26.527Z,38.50
2023-03-25T06:16:57.617Z,38.60
2023-03-25T06:19:27.664Z,38.50
2023-03-25T06:21:57.015Z,38.50
2023-03-25T06:24:26.327Z,38.50
2023-03-25T06:26:55.580Z,38.50
2023-03-25T06:29:24.831Z,38.50
2023-03-25T06:31:54.110Z,38.50
2023-03-25T06:34:23.762Z,38.50
2023-03-25T06:36:55.117Z,38.50
2023-03-25T06:39:24.455Z,38.60
2023-03-25T06:41:53.696Z,38.70
2023-03-25T06:44:24.353Z,38.90
2023-03-25T06:46:55.036Z,38.90
2023-03-25T06:49:24.691Z,39.00
2023-03-25T06:51:53.977Z,39.10
2023-03-25T06:54:23.732Z,39.10
2023-03-25T06:56:52.990Z,39.20
2023-03-25T06:59:22.184Z,39.20
2023-03-25T07:01:51.737Z,39.20
2023-03-25T07:04:21.164Z,39.20
2023-03-25T07:06:50.463Z,39.30
2023-03-25T07:09:19.980Z,39.30
2023-03-25T07:11:49.292Z,39.30
2023-03-25T07:14:19.437Z,39.30
2023-03-25T07:16:48.869Z,39.40
2023-03-25T07:19:18.200Z,39.40
2023-03-25T07:21:47.480Z,39.40
2023-03-25T07:24:17.071Z,39.40
2023-03-25T07:26:46.431Z,39.40
2023-03-25T07:29:15.684Z,39.40
2023-03-25T07:31:45.087Z,39.50
2023-03-25T07:34:14.377Z,39.50
2023-03-25T07:36:43.632Z,39.60
2023-03-25T07:39:12.929Z,39.70
2023-03-25T07:41:43.968Z,39.70
2023-03-25T07:44:13.537Z,39.70
2023-03-25T07:46:43.731Z,39.60
2023-03-25T07:49:12.984Z,39.60
2023-03-25T07:51:42.345Z,39.70
2023-03-25T07:54:12.177Z,39.70
2023-03-25T07:56:41.498Z,39.60
2023-03-25T07:59:10.735Z,39.60
2023-03-25T08:01:39.969Z,39.60
2023-03-25T08:04:09.242Z,39.60
2023-03-25T08:06:38.716Z,39.60
2023-03-25T08:09:08.445Z,39.70
2023-03-25T08:11:37.815Z,39.80
2023-03-25T08:14:07.611Z,39.80
2023-03-25T08:16:36.932Z,39.80
2023-03-25T08:19:06.133Z,39.80
2023-03-25T08:21:35.263Z,39.80
2023-03-25T08:24:05.543Z,39.70
2023-03-25T08:26:36.559Z,39.60
2023-03-25T08:29:06.154Z,39.60
2023-03-25T08:31:36.557Z,39.60
2023-03-25T08:34:07.738Z,39.50
2023-03-25T08:36:40.372Z,39.50
2023-03-25T08:39:12.549Z,39.50
2023-03-25T08:41:42.262Z,39.50
2023-03-25T08:44:12.490Z,39.50
2023-03-25T08:46:42.566Z,39.50
2023-03-25T08:49:11.842Z,39.50
2023-03-25T08:51:43.467Z,39.50
2023-03-25T08:54:13.402Z,39.60
2023-03-25T08:56:42.641Z,39.60
2023-03-25T08:59:12.443Z,39.60
2023-03-25T09:01:43.213Z,39.60
2023-03-25T09:04:13.234Z,39.60
2023-03-25T09:06:48.217Z,39.50
2023-03-25T09:09:31.975Z,39.50
2023-03-25T09:12:01.396Z,39.50
2023-03-25T09:14:30.586Z,39.50
2023-03-25T09:16:59.792Z,39.40
2023-03-25T09:19:29.140Z,39.40
2023-03-25T09:21:58.319Z,39.40
2023-03-25T09:24:28.357Z,39.30
2023-03-25T09:26:57.492Z,39.30
2023-03-25T09:29:26.680Z,39.20
2023-03-25T09:31:56.247Z,39.20
2023-03-25T09:34:25.853Z,39.10
2023-03-25T09:36:57.218Z,39.00
2023-03-25T09:39:26.411Z,39.00
2023-03-25T09:42:07.588Z,39.00
2023-03-25T09:45:07.110Z,38.90
2023-03-25T09:47:49.806Z,38.90
2023-03-25T09:50:20.652Z,38.90
2023-03-25T09:53:37.862Z,38.80
2023-03-25T09:56:16.972Z,38.70
2023-03-25T09:59:01.621Z,38.70
2023-03-25T10:01:48.732Z,38.60
2023-03-25T10:04:58.642Z,38.60
2023-03-25T10:07:45.531Z,38.60
2023-03-25T10:10:49.355Z,38.50
2023-03-25T10:13:50.405Z,38.50
2023-03-25T10:17:07.283Z,38.40
2023-03-25T10:19:55.381Z,38.30
2023-03-25T10:22:42.656Z,38.20
2023-03-25T10:25:29.368Z,38.20
2023-03-25T10:28:01.872Z,38.10
2023-03-25T10:30:39.722Z,38.00
2023-03-25T10:33:42.901Z,38.00
2023-03-25T10:36:22.470Z,37.90
2023-03-25T10:38:56.541Z,37.80
2023-03-25T10:41:38.744Z,37.70
2023-03-25T10:44:12.929Z,37.60
2023-03-25T10:47:06.228Z,37.60
2023-03-25T10:49:38.187Z,37.50
2023-03-25T10:52:08.008Z,37.50
2023-03-25T10:54:43.827Z,37.40
2023-03-25T10:57:24.017Z,37.30
2023-03-25T11:00:20.891Z,37.20
2023-03-25T11:02:51.371Z,37.00
2023-03-25T11:05:30.904Z,36.90
2023-03-25T11:08:11.965Z,36.80
2023-03-25T11:11:00.356Z,36.70
2023-03-25T11:13:32.837Z,36.60
2023-03-25T11:16:05.280Z,36.60
2023-03-25T11:18:41.459Z,36.50
2023-03-25T11:21:19.370Z,36.40
2023-03-25T11:23:52.840Z,36.30
2023-03-25T11:26:40.293Z,36.20
2023-03-25T11:29:15.121Z,36.20
2023-03-25T11:31:45.685Z,36.10
2023-03-25T11:34:14.998Z,36.10
2023-03-25T11:37:09.958Z,36.00
2023-03-25T11:39:44.487Z,36.00
2023-03-25T11:42:40.585Z,35.80
2023-03-25T11:45:25.489Z,35.80
2023-03-25T11:48:01.499Z,35.80
2023-03-25T11:50:32.385Z,35.70
2023-03-25T11:53:05.269Z,35.70
2023-03-25T11:55:47.432Z,35.60
2023-03-25T11:58:28.399Z,35.60
2023-03-25T12:01:21.984Z,35.50
2023-03-25T12:03:52.750Z,35.40
2023-03-25T12:06:24.111Z,35.40
2023-03-25T12:09:02.261Z,35.30
2023-03-25T12:12:17.694Z,35.30
2023-03-25T12:15:15.248Z,35.30
2023-03-25T12:17:57.779Z,35.20
2023-03-25T12:20:47.319Z,35.20
2023-03-25T12:23:46.555Z,35.10
2023-03-25T12:26:39.604Z,35.10
2023-03-25T12:29:37.279Z,35.10
2023-03-25T12:32:06.118Z,35.10
2023-03-25T12:35:16.419Z,35.00
2023-03-25T12:38:25.581Z,35.00
2023-03-25T12:41:09.548Z,34.90
2023-03-25T12:43:49.334Z,34.90
2023-03-25T12:46:50.592Z,34.80
2023-03-25T12:50:17.271Z,34.80
2023-03-25T12:53:21.071Z,34.80
2023-03-25T12:56:21.584Z,34.70
2023-03-25T12:59:33.681Z,34.70
2023-03-25T13:03:13.417Z,34.60
2023-03-25T13:05:57.450Z,34.50
2023-03-25T13:08:49.582Z,34.50
2023-03-25T13:11:51.884Z,34.40
2023-03-25T13:15:03.560Z,34.40
2023-03-25T13:17:47.297Z,34.30
2023-03-25T13:20:20.149Z,34.30
2023-03-25T13:23:00.550Z,34.20
2023-03-25T13:25:34.931Z,34.10
2023-03-25T13:28:11.777Z,34.10
2023-03-25T13:30:45.299Z,34.10
2023-03-25T13:33:38.598Z,34.00
2023-03-25T13:36:36.766Z,34.00
2023-03-25T13:39:28.844Z,33.90
2023-03-25T13:42:42.744Z,33.90
2023-03-25T13:45:22.846Z,33.90
2023-03-25T13:48:19.280Z,33.80
2023-03-25T13:50:48.651Z,33.80
2023-03-25T13:54:09.976Z,33.80
2023-03-25T13:57:12.410Z,33.70
2023-03-25T14:00:53.803Z,33.70
2023-03-25T14:04:20.653Z,33.70
2023-03-25T14:06:58.625Z,33.70
2023-03-25T14:10:02.357Z,33.60
2023-03-25T14:12:52.385Z,33.60
2023-03-25T14:15:38.771Z,33.60
2023-03-25T14:18:19.506Z,33.50
2023-03-25T14:20:50.507Z,33.50
2023-03-25T14:23:24.060Z,33.50
2023-03-25T14:26:01.150Z,33.50
2023-03-25T14:28:46.995Z,33.50
2023-03-25T14:31:25.467Z,33.40
2023-03-25T14:34:04.052Z,33.40
2023-03-25T14:36:43.227Z,33.50
2023-03-25T14:39:30.076Z,33.40
2023-03-25T14:42:31.865Z,33.40
2023-03-25T14:45:55.045Z,33.40
2023-03-25T14:49:09.944Z,33.40
2023-03-25T14:51:43.399Z,33.40
2023-03-25T14:54:24.741Z,33.30
2023-03-25T14:57:07.089Z,33.30
2023-03-25T14:59:51.582Z,33.30
2023-03-25T15:02:35.444Z,33.20
2023-03-25T15:05:13.065Z,33.20
2023-03-25T15:08:25.357Z,33.20
2023-03-25T15:11:18.082Z,33.10
2023-03-25T15:13:57.321Z,33.00
2023-03-25T15:16:49.350Z,33.00
2023-03-25T15:19:21.028Z,33.00
2023-03-25T15:22:02.418Z,32.90
2023-03-25T15:24:40.647Z,32.90
2023-03-25T15:27:46.969Z,32.80
2023-03-25T15:30:45.843Z,32.80
2023-03-25T15:34:17.996Z,32.80
2023-03-25T15:37:45.266Z,32.70
2023-03-25T15:41:02.319Z,32.70
2023-03-25T15:44:13.485Z,32.70
2023-03-25T15:47:00.712Z,32.60
2023-03-25T15:50:09.701Z,32.60
2023-03-25T15:53:42.442Z,32.50
2023-03-25T15:56:25.762Z,32.50
2023-03-25T15:59:09.303Z,32.50
2023-03-25T16:01:44.901Z,32.40
2023-03-25T16:04:40.243Z,32.40
2023-03-25T16:07:15.217Z,32.30
2023-03-25T16:09:49.843Z,32.30
2023-03-25T16:12:27.186Z,32.30
2023-03-25T16:14:56.945Z,32.20
2023-03-25T16:17:35.774Z,32.20
2023-03-25T16:20:07.780Z,32.10
2023-03-25T16:22:38.906Z,31.90
2023-03-25T16:25:17.841Z,31.80
2023-03-25T16:27:53.505Z,31.70
2023-03-25T16:30:37.795Z,31.60
2023-03-25T16:33:12.809Z,31.50
2023-03-25T16:36:00.033Z,31.40
2023-03-25T16:38:32.034Z,31.30
2023-03-25T16:41:16.167Z,31.20
2023-03-25T16:43:46.349Z,31.20
2023-03-25T16:46:19.751Z,31.10
2023-03-25T16:48:55.655Z,31.10
2023-03-25T16:51:36.998Z,31.00
2023-03-25T16:54:48.025Z,31.00
2023-03-25T16:57:28.241Z,30.90
2023-03-25T17:00:03.940Z,30.90
2023-03-25T17:02:42.527Z,30.90
2023-03-25T17:05:28.497Z,30.90
2023-03-25T17:08:12.098Z,30.90
2023-03-25T17:11:02.121Z,30.80
2023-03-25T17:13:43.653Z,30.80
2023-03-25T17:16:14.556Z,30.80
2023-03-25T17:18:44.090Z,30.80
2023-03-25T17:21:28.162Z,30.80
2023-03-25T17:24:02.807Z,30.80
2023-03-25T17:26:55.301Z,30.80
2023-03-25T17:29:24.733Z,30.70
2023-03-25T17:32:00.506Z,30.70
2023-03-25T17:34:38.229Z,30.80
2023-03-25T17:37:12.349Z,30.70
2023-03-25T17:39:44.143Z,30.70
2023-03-25T17:42:27.760Z,30.70
2023-03-25T17:44:57.114Z,30.70
2023-03-25T17:47:27.179Z,30.70
2023-03-25T17:49:57.498Z,30.70
2023-03-25T17:52:30.778Z,30.70
2023-03-25T17:55:01.351Z,30.60
2023-03-25T17:57:30.644Z,30.60
2023-03-25T17:59:59.994Z,30.60
2023-03-25T18:02:29.867Z,30.60
2023-03-25T18:04:59.250Z,30.60
2023-03-25T18:07:28.849Z,30.60
2023-03-25T18:09:58.071Z,30.60
2023-03-25T18:12:28.016Z,30.50
2023-03-25T18:14:57.333Z,30.50
2023-03-25T18:17:26.644Z,30.50
2023-03-25T18:19:55.958Z,30.50
2023-03-25T18:22:25.281Z,30.50
2023-03-25T18:24:54.597Z,30.50
2023-03-25T18:27:33.294Z,30.40
2023-03-25T18:30:30.496Z,30.40
2023-03-25T18:32:59.979Z,30.40
2023-03-25T18:35:29.318Z,30.40
2023-03-25T18:37:58.689Z,30.40
2023-03-25T18:40:35.978Z,30.40
2023-03-25T18:43:05.632Z,30.30
2023-03-25T18:45:35.357Z,30.40
2023-03-25T18:48:06.014Z,30.30
2023-03-25T18:50:42.882Z,30.30
2023-03-25T18:53:12.239Z,30.30
2023-03-25T18:55:44.133Z,30.30
2023-03-25T18:58:23.609Z,30.20
2023-03-25T19:00:56.006Z,30.20
2023-03-25T19:03:47.301Z,30.20
2023-03-25T19:06:16.958Z,30.20
2023-03-25T19:08:48.406Z,30.20
2023-03-25T19:11:21.898Z,30.20
2023-03-25T19:13:53.474Z,30.10
2023-03-25T19:16:23.132Z,30.10
2023-03-25T19:18:52.599Z,30.10
2023-03-25T19:21:22.423Z,30.00
2023-03-25T19:23:53.121Z,30.00
2023-03-25T19:26:22.397Z,29.90
2023-03-25T19:28:51.754Z,29.80
2023-03-25T19:31:21.363Z,29.70
2023-03-25T19:33:50.742Z,29.60
2023-03-25T19:36:24.024Z,29.60
2023-03-25T19:38:55.948Z,29.50
2023-03-25T19:41:25.260Z,29.50
2023-03-25T19:43:54.505Z,29.50
2023-03-25T19:46:24.837Z,29.50
2023-03-25T19:48:54.261Z,29.50
2023-03-25T19:51:23.533Z,29.50
2023-03-25T19:53:52.842Z,29.50
2023-03-25T19:56:22.515Z,29.50
2023-03-25T19:58:51.808Z,29.50
2023-03-25T20:01:23.365Z,29.40
2023-03-25T20:03:53.487Z,29.40
2023-03-25T20:06:22.807Z,29.30
2023-03-25T20:08:52.143Z,29.20
2023-03-25T20:11:21.626Z,29.20
2023-03-25T20:13:51.069Z,29.10
2023-03-25T20:16:21.529Z,29.10
2023-03-25T20:18:51.334Z,29.10
2023-03-25T20:21:22.581Z,29.10
2023-03-25T20:23:53.048Z,29.10
2023-03-25T20:26:22.641Z,29.10
2023-03-25T20:28:52.127Z,29.10
2023-03-25T20:31:24.819Z,29.10
2023-03-25T20:33:54.279Z,29.10
2023-03-25T20:36:24.297Z,29.20
2023-03-25T20:38:57.524Z,29.10
2023-03-25T20:41:28.179Z,29.10
2023-03-25T20:43:57.557Z,29.10
2023-03-25T20:46:32.160Z,29.10
2023-03-25T20:49:02.866Z,29.10
2023-03-25T20:51:32.109Z,29.20
2023-03-25T20:54:01.329Z,29.10
2023-03-25T20:56:30.625Z,29.10
2023-03-25T20:58:59.878Z,29.10
2023-03-25T21:01:29.678Z,29.10
2023-03-25T21:03:59.596Z,29.10
2023-03-25T21:06:28.817Z,29.10
2023-03-25T21:09:01.046Z,29.10
2023-03-25T21:11:34.884Z,29.10
2023-03-25T21:14:04.894Z,29.10
2023-03-25T21:16:34.773Z,29.10
2023-03-25T21:19:03.960Z,29.00
2023-03-25T21:21:33.954Z,28.90
2023-03-25T21:24:05.315Z,28.80
2023-03-25T21:26:35.822Z,28.80
2023-03-25T21:29:05.090Z,28.70
2023-03-25T21:31:34.394Z,28.60
2023-03-25T21:34:03.696Z,28.60
2023-03-25T21:36:33.610Z,28.60
2023-03-25T21:39:05.518Z,28.50
2023-03-25T21:41:34.792Z,28.50
2023-03-25T21:44:04.257Z,28.50
2023-03-25T21:46:34.501Z,28.50
2023-03-25T21:49:05.138Z,28.50
2023-03-25T21:51:37.097Z,28.50
2023-03-25T21:54:07.273Z,28.50
2023-03-25T21:56:40.982Z,28.50
2023-03-25T21:59:11.340Z,28.50
2023-03-25T22:01:42.676Z,28.50
2023-03-25T22:04:12.211Z,28.50
2023-03-25T22:06:41.779Z,28.40
2023-03-25T22:09:11.263Z,28.40
2023-03-25T22:11:40.885Z,28.40
2023-03-25T22:14:10.692Z,28.40
2023-03-25T22:16:40.374Z,28.40
2023-03-25T22:19:09.805Z,28.30
2023-03-25T22:21:39.179Z,28.40
2023-03-25T22:24:10.583Z,28.30
2023-03-25T22:26:40.793Z,28.30
2023-03-25T22:29:12.287Z,28.30
2023-03-25T22:31:42.059Z,28.30
2023-03-25T22:34:16.095Z,28.30
2023-03-25T22:36:51.302Z,28.30
2023-03-25T22:39:23.928Z,28.30
2023-03-25T22:41:53.621Z,28.30
2023-03-25T22:44:23.255Z,28.30
2023-03-25T22:46:54.130Z,28.30
2023-03-25T22:49:23.889Z,28.30
2023-03-25T22:51:53.520Z,28.30
2023-03-25T22:54:23.615Z,28.30
2023-03-25T22:56:52.897Z,28.30
2023-03-25T22:59:22.344Z,28.30
2023-03-25T23:01:51.603Z,28.40
2023-03-25T23:04:20.877Z,28.40
2023-03-25T23:07:00.646Z,28.40
2023-03-25T23:09:43.336Z,28.40
2023-03-25T23:12:17.853Z,28.40
2023-03-25T23:14:53.239Z,28.40
2023-03-25T23:17:24.843Z,28.40
2023-03-25T23:19:54.893Z,28.40
2023-03-25T23:22:25.738Z,28.40
2023-03-25T23:24:55.103Z,28.30
2023-03-25T23:27:25.859Z,28.30
2023-03-25T23:29:55.402Z,28.30
2023-03-25T23:32:24.638Z,28.30
2023-03-25T23:34:59.157Z,28.30
2023-03-25T23:37:28.555Z,28.30
2023-03-25T23:39:57.762Z,28.30
2023-03-25T23:42:34.895Z,28.30
2023-03-25T23:45:05.045Z,28.30
2023-03-25T23:47:34.575Z,28.20
2023-03-25T23:50:04.996Z,28.20
2023-03-25T23:52:34.516Z,28.20
2023-03-25T23:55:03.768Z,28.20
2023-03-25T23:57:33.142Z,28.20
